Time;durP1;ratioP1;P1;durP2;ratioP2;P2;SDS_P1;SDS_P2;PMS_P1;PMS_P2;Temp;Humidity;BMP_temperature;BMP_pressure;BME280_temperature;BME280_humidity;BME280_pressure;Samples;Min_cycle;Max_cycle;Signal;HPM_P1;HPM_P2
2023/06/07 00:01:12;;;;;;;7.90;4.30;;;;;;;16.99;44.87;101419.58;107530;1244;58997;-75
2023/06/07 00:03:41;;;;;;;8.50;4.00;;;;;;;16.89;45.69;101420.09;107467;1242;62142;-76
2023/06/07 00:06:13;;;;;;;7.90;3.40;;;;;;;16.80;46.17;101414.38;107451;1242;73065;-77
2023/06/07 00:08:43;;;;;;;4.50;3.10;;;;;;;16.71;46.13;101415.73;107328;1251;69576;-76
2023/06/07 00:11:12;;;;;;;6.90;2.40;;;;;;;16.62;46.39;101416.77;107538;1246;63141;-75
2023/06/07 00:13:41;;;;;;;5.10;2.30;;;;;;;16.55;46.58;101418.45;107467;1241;57983;-75
2023/06/07 00:16:10;;;;;;;4.90;2.10;;;;;;;16.52;46.73;101418.73;107558;1241;60228;-76
2023/06/07 00:18:40;;;;;;;5.30;2.00;;;;;;;16.48;46.49;101418.04;107465;1247;63532;-75
2023/06/07 00:21:09;;;;;;;7.20;2.60;;;;;;;16.53;46.24;101417.89;107545;1245;61626;-74
2023/06/07 00:23:38;;;;;;;9.30;2.20;;;;;;;16.52;46.43;101416.41;107432;1254;59460;-75
2023/06/07 00:26:07;;;;;;;3.70;2.00;;;;;;;16.56;46.32;101416.42;107335;1244;73689;-74
2023/06/07 00:28:35;;;;;;;6.30;2.00;;;;;;;16.54;46.27;101411.56;107256;1245;60777;-72
2023/06/07 00:31:04;;;;;;;5.10;2.00;;;;;;;16.53;46.32;101409.12;107195;1241;58159;-73
2023/06/07 00:33:33;;;;;;;4.90;1.90;;;;;;;16.52;46.38;101407.95;107162;1241;71711;-73
2023/06/07 00:36:03;;;;;;;4.70;2.00;;;;;;;16.54;46.42;101410.59;107165;1245;73205;-75
2023/06/07 00:38:32;;;;;;;3.10;1.80;;;;;;;16.57;46.44;101408.83;107410;1252;59052;-73
2023/06/07 00:41:01;;;;;;;4.30;2.00;;;;;;;16.59;46.22;101408.65;107545;1254;64324;-72
2023/06/07 00:43:30;;;;;;;3.80;1.90;;;;;;;16.56;46.34;101410.79;107476;1244;58896;-76
2023/06/07 00:45:59;;;;;;;2.50;1.70;;;;;;;16.55;46.38;101409.00;107486;1244;57549;-73
2023/06/07 00:48:29;;;;;;;6.40;2.30;;;;;;;16.56;46.44;101409.62;107434;1244;62260;-73
2023/06/07 00:50:58;;;;;;;5.70;2.10;;;;;;;16.56;46.65;101409.59;107328;1244;72223;-75
2023/06/07 00:53:29;;;;;;;5.80;2.00;;;;;;;16.56;46.53;101404.27;107276;1246;69065;-74
2023/06/07 00:56:00;;;;;;;;;;;;;;;16.57;46.63;101405.59;107372;1244;74227;-74
2023/06/07 00:58:29;;;;;;;3.80;1.70;;;;;;;16.54;46.73;101402.50;107483;1245;61490;-73
2023/06/07 01:00:59;;;;;;;4.90;2.20;;;;;;;16.56;46.68;101399.05;108209;1241;61738;-72
2023/06/07 01:03:30;;;;;;;4.40;2.20;;;;;;;16.53;46.79;101401.54;107958;1245;63608;-72
2023/06/07 01:06:02;;;;;;;5.10;2.10;;;;;;;16.50;47.05;101398.49;108539;1241;71428;-76
2023/06/07 01:08:33;;;;;;;5.20;2.00;;;;;;;16.45;47.24;101393.83;108406;1244;59625;-74
2023/06/07 01:11:05;;;;;;;4.80;2.20;;;;;;;16.37;47.79;101400.48;108472;1244;72989;-75
2023/06/07 01:13:35;;;;;;;4.80;2.10;;;;;;;16.32;47.64;101399.83;107365;1254;61672;-76
2023/06/07 01:16:06;;;;;;;4.50;1.90;;;;;;;16.32;47.81;101400.39;108264;1241;58725;-75
2023/06/07 01:18:37;;;;;;;4.50;2.10;;;;;;;16.29;47.88;101400.10;107194;1241;73054;-76
2023/06/07 01:21:07;;;;;;;4.10;1.90;;;;;;;16.27;48.09;101400.47;107421;1244;62080;-76
2023/06/07 01:23:36;;;;;;;3.60;2.00;;;;;;;16.21;48.29;101397.97;107194;1245;59740;-76
2023/06/07 01:26:06;;;;;;;5.20;1.90;;;;;;;16.14;48.48;101398.41;107394;1244;64644;-75
2023/06/07 01:28:37;;;;;;;4.80;2.00;;;;;;;16.05;48.83;101402.68;107359;1243;58867;-77
2023/06/07 01:31:06;;;;;;;3.60;1.90;;;;;;;15.93;49.65;101406.70;107246;1254;61600;-76
2023/06/07 01:33:36;;;;;;;3.60;1.90;;;;;;;15.83;50.30;101408.91;107313;1244;74144;-76
2023/06/07 01:36:05;;;;;;;5.10;2.30;;;;;;;15.71;50.67;101411.88;107217;1241;72895;-76
2023/06/07 01:38:35;;;;;;;5.80;2.10;;;;;;;15.60;51.51;101409.83;107325;1254;59653;-73
2023/06/07 01:41:06;;;;;;;10.40;2.30;;;;;;;15.47;52.43;101413.29;107101;1241;73050;-72
2023/06/07 01:43:37;;;;;;;7.70;2.20;;;;;;;15.34;53.44;101411.52;107333;1245;61081;-72
2023/06/07 01:46:07;;;;;;;3.10;1.90;;;;;;;15.22;53.83;101408.48;107376;1245;61579;-74
2023/06/07 01:48:36;;;;;;;2.90;2.10;;;;;;;15.14;53.98;101410.69;107078;1246;63707;-76
2023/06/07 01:51:05;;;;;;;5.20;2.20;;;;;;;15.04;55.13;101410.97;107366;1251;61862;-74
2023/06/07 01:53:34;;;;;;;5.30;2.10;;;;;;;14.91;55.16;101413.10;107324;1246;59995;-76
2023/06/07 01:56:18;;;;;;;5.20;2.30;;;;;;;14.75;55.70;101409.79;107286;1245;73077;-75
2023/06/07 01:59:22;;;;;;;4.20;2.30;;;;;;;14.59;54.80;101408.25;107262;1241;59049;-74
2023/06/07 02:02:22;;;;;;;3.20;2.00;;;;;;;14.37;57.05;101403.64;107224;1245;59040;-75
2023/06/07 02:05:03;;;;;;;4.20;2.40;;;;;;;14.17;59.86;101408.83;107305;1245;73411;-77
2023/06/07 02:07:42;;;;;;;4.60;2.30;;;;;;;14.03;60.15;101409.73;107300;1254;72633;-75
2023/06/07 02:10:13;;;;;;;5.70;2.50;;;;;;;13.90;61.64;101415.81;107430;1241;70218;-74
2023/06/07 02:12:42;;;;;;;3.80;2.40;;;;;;;13.79;62.32;101411.90;107310;1254;73335;-75
2023/06/07 02:15:12;;;;;;;6.10;2.40;;;;;;;13.71;60.81;101413.00;107299;1245;61351;-73
2023/06/07 02:17:48;;;;;;;4.50;2.50;;;;;;;13.60;63.33;101410.48;107439;1250;61772;-75
2023/06/07 02:20:20;;;;;;;8.50;2.20;;;;;;;13.54;63.48;101412.36;107331;1242;73942;-73
2023/06/07 02:22:49;;;;;;;4.20;2.30;;;;;;;13.48;64.07;101411.55;107536;1241;71647;-73
2023/06/07 02:25:18;;;;;;;5.50;2.50;;;;;;;13.44;63.05;101411.27;107394;1245;59621;-74
2023/06/07 02:27:49;;;;;;;4.60;2.50;;;;;;;13.42;64.18;101417.25;107475;1245;73078;-76
2023/06/07 02:30:19;;;;;;;5.70;2.60;;;;;;;13.42;64.35;101412.50;107352;1251;60788;-75
2023/06/07 02:32:49;;;;;;;5.00;2.50;;;;;;;13.45;64.31;101410.55;107548;1244;59024;-75
2023/06/07 02:35:18;;;;;;;5.00;2.10;;;;;;;13.48;63.52;101411.02;107527;1244;72746;-76
2023/06/07 02:37:47;;;;;;;4.20;2.40;;;;;;;13.52;63.19;101408.60;107451;1245;62370;-74
2023/06/07 02:40:16;;;;;;;6.40;2.60;;;;;;;13.61;62.35;101408.50;107384;1254;59207;-75
2023/06/07 02:42:47;;;;;;;6.80;2.70;;;;;;;13.73;62.02;101409.19;107185;1254;63248;-74
2023/06/07 02:45:16;;;;;;;3.80;2.00;;;;;;;13.89;60.35;101412.50;107422;1241;58880;-75
2023/06/07 02:47:45;;;;;;;3.60;2.20;;;;;;;13.99;59.73;101412.33;107304;1254;60391;-75
2023/06/07 02:50:15;;;;;;;9.40;2.40;;;;;;;14.17;59.17;101414.78;107390;1241;73328;-76
2023/06/07 02:52:44;;;;;;;7.70;3.20;;;;;;;14.31;57.98;101412.45;107168;1241;72307;-74
2023/06/07 02:55:14;;;;;;;8.00;2.30;;;;;;;14.57;56.79;101412.94;107504;1245;59564;-73
2023/06/07 02:57:43;;;;;;;8.00;2.90;;;;;;;14.62;56.85;101410.97;107496;1245;73828;-75
2023/06/07 03:00:17;;;;;;;6.40;2.90;;;;;;;14.74;56.31;101410.55;107530;1242;58883;-74
2023/06/07 03:02:52;;;;;;;11.30;3.00;;;;;;;14.91;55.41;101406.77;107154;1254;60208;-75
2023/06/07 03:05:26;;;;;;;5.10;2.50;;;;;;;15.00;55.12;101404.66;107080;1251;63305;-78
2023/06/07 03:07:59;;;;;;;9.80;2.90;;;;;;;15.07;54.81;101404.90;107062;1254;72159;-77
2023/06/07 03:10:29;;;;;;;6.70;2.50;;;;;;;15.16;54.86;101406.20;107544;1241;71969;-78
2023/06/07 03:12:58;;;;;;;8.10;2.70;;;;;;;15.21;54.85;101406.09;107409;1248;62853;-76
2023/06/07 03:15:28;;;;;;;6.50;2.70;;;;;;;15.26;54.86;101404.83;107534;1244;59073;-74
2023/06/07 03:17:58;;;;;;;6.30;2.90;;;;;;;15.31;54.54;101404.41;107460;1244;59092;-76
2023/06/07 03:20:28;;;;;;;7.00;2.60;;;;;;;15.35;54.44;101405.11;107580;1246;63424;-75
2023/06/07 03:23:00;;;;;;;6.50;2.80;;;;;;;15.39;54.32;101403.76;107350;1246;71943;-75
2023/06/07 03:25:29;;;;;;;5.30;2.40;;;;;;;15.43;54.15;101402.26;107639;1241;60775;-74
2023/06/07 03:27:59;;;;;;;5.60;2.90;;;;;;;15.49;53.99;101402.97;107490;1255;62504;-75
2023/06/07 03:30:34;;;;;;;7.20;2.60;;;;;;;15.49;53.90;101402.39;107432;1245;59060;-74
2023/06/07 03:33:03;;;;;;;7.60;2.70;;;;;;;15.50;53.76;101406.16;107571;1248;59068;-75
2023/06/07 03:35:33;;;;;;;8.00;3.00;;;;;;;15.56;53.59;101406.19;107525;1243;73851;-75
2023/06/07 03:38:03;;;;;;;11.40;3.60;;;;;;;15.57;53.59;101409.98;107469;1244;71987;-76
2023/06/07 03:40:33;;;;;;;9.40;2.80;;;;;;;15.58;54.00;101404.25;107567;1244;68950;-76
2023/06/07 03:43:02;;;;;;;12.70;5.20;;;;;;;15.57;54.15;101408.02;107447;1245;74286;-75
2023/06/07 03:45:30;;;;;;;5.60;2.90;;;;;;;15.58;54.01;101405.16;107359;1254;61585;-75
2023/06/07 03:48:04;;;;;;;9.60;2.70;;;;;;;15.59;54.05;101408.63;107563;1249;59131;-74
2023/06/07 03:50:34;;;;;;;11.40;3.20;;;;;;;15.63;53.92;101411.59;107489;1241;73867;-75
2023/06/07 03:53:03;;;;;;;5.70;2.30;;;;;;;15.68;53.92;101413.93;107462;1245;71771;-76
2023/06/07 03:55:33;;;;;;;10.80;2.90;;;;;;;15.72;53.88;101413.89;107370;1248;59646;-76
2023/06/07 03:58:02;;;;;;;11.90;3.50;;;;;;;15.77;53.63;101415.05;107453;1254;73127;-76
2023/06/07 04:00:31;;;;;;;5.60;3.00;;;;;;;15.82;53.66;101414.28;107526;1243;58871;-75
2023/06/07 04:03:00;;;;;;;7.40;3.30;;;;;;;15.88;53.55;101410.59;107479;1245;59099;-69
2023/06/07 04:05:29;;;;;;;14.40;4.00;;;;;;;15.94;53.20;101412.02;107273;1255;62206;-69
2023/06/07 04:07:59;;;;;;;6.90;3.10;;;;;;;16.04;53.10;101411.02;107371;1245;71414;-70
2023/06/07 04:10:29;;;;;;;9.70;3.20;;;;;;;16.11;52.84;101408.86;107461;1254;59583;-69
2023/06/07 04:12:58;;;;;;;9.80;3.10;;;;;;;16.23;52.55;101408.39;107442;1245;63524;-69
2023/06/07 04:15:28;;;;;;;8.20;2.80;;;;;;;16.34;52.15;101407.10;107353;1253;59019;-67
2023/06/07 04:17:56;;;;;;;7.20;3.30;;;;;;;16.44;52.01;101411.49;107294;1251;60348;-70
2023/06/07 04:20:28;;;;;;;7.60;3.30;;;;;;;16.55;52.14;101412.31;107230;1242;62528;-69
2023/06/07 04:22:58;;;;;;;7.00;3.30;;;;;;;16.64;51.37;101416.21;107249;1245;71659;-70
2023/06/07 04:25:34;;;;;;;13.70;3.60;;;;;;;16.67;51.29;101421.80;107377;1244;61245;-68
2023/06/07 04:28:08;;;;;;;12.10;4.10;;;;;;;16.74;51.13;101422.35;107307;1254;63305;-69
2023/06/07 04:30:42;;;;;;;9.50;3.50;;;;;;;16.79;50.93;101421.15;107127;1255;61486;-67
2023/06/07 04:33:13;;;;;;;7.00;3.40;;;;;;;16.74;50.74;101416.64;107274;1243;60215;-70
2023/06/07 04:35:46;;;;;;;11.30;4.20;;;;;;;16.76;50.75;101420.40;107122;1247;63762;-68
2023/06/07 04:38:21;;;;;;;9.60;4.90;;;;;;;16.95;50.51;101417.98;107273;1252;70264;-69
2023/06/07 04:40:56;;;;;;;11.60;4.30;;;;;;;17.07;50.28;101416.18;107382;1246;59652;-68
2023/06/07 04:43:36;;;;;;;9.00;3.10;;;;;;;17.33;50.23;101416.05;107413;1245;74018;-69
2023/06/07 04:46:09;;;;;;;7.60;3.20;;;;;;;17.46;49.48;101416.37;107422;1245;60286;-68
2023/06/07 04:48:40;;;;;;;8.40;3.10;;;;;;;17.55;49.81;101421.27;107318;1255;57504;-70
2023/06/07 04:51:13;;;;;;;9.00;2.80;;;;;;;17.60;49.32;101415.98;107442;1242;73537;-70
2023/06/07 04:53:44;;;;;;;7.60;2.80;;;;;;;17.71;49.08;101420.48;107292;1247;63402;-70
2023/06/07 04:56:21;;;;;;;7.50;3.00;;;;;;;17.84;49.26;101418.77;107378;1254;69873;-69
2023/06/07 04:58:52;;;;;;;6.80;2.90;;;;;;;17.94;50.05;101419.61;107364;1244;74270;-71
2023/06/07 05:02:53;;;;;;;6.10;3.00;;;;;;;18.03;49.70;101418.46;104234;1279;616588;-65
2023/06/07 05:05:21;;;;;;;9.60;3.20;;;;;;;18.10;49.89;101420.98;106700;1254;60649;-64
2023/06/07 05:07:50;;;;;;;7.00;2.90;;;;;;;18.16;49.69;101424.10;107160;1248;58991;-64
2023/06/07 05:10:18;;;;;;;8.20;3.20;;;;;;;18.30;49.10;101423.84;106879;1260;61505;-64
2023/06/07 05:12:47;;;;;;;10.30;3.20;;;;;;;18.42;48.08;101423.40;106850;1251;72093;-64
2023/06/07 05:15:15;;;;;;;7.70;3.00;;;;;;;18.55;47.85;101420.20;106732;1251;249132;-64
2023/06/07 05:17:45;;;;;;;12.10;3.70;;;;;;;18.70;47.67;101417.80;107109;1248;63214;-66
2023/06/07 05:20:14;;;;;;;8.40;3.40;;;;;;;18.74;47.16;101417.61;107073;1248;60638;-64
2023/06/07 05:22:43;;;;;;;8.70;3.60;;;;;;;18.76;47.21;101419.52;107125;1244;61558;-64
2023/06/07 05:25:12;;;;;;;12.80;3.90;;;;;;;18.81;47.30;101426.95;107040;1244;70931;-62
2023/06/07 05:27:40;;;;;;;5.90;2.80;;;;;;;18.89;47.09;101428.90;106968;1244;73839;-65
2023/06/07 05:30:09;;;;;;;6.80;2.50;;;;;;;18.88;46.81;101433.24;107111;1248;59514;-65
2023/06/07 05:32:38;;;;;;;6.00;3.20;;;;;;;18.92;46.52;101431.58;106869;1252;63634;-65
2023/06/07 05:35:07;;;;;;;9.30;2.50;;;;;;;18.86;46.82;101429.70;106938;1248;59061;-65
2023/06/07 05:37:35;;;;;;;7.00;3.00;;;;;;;18.90;46.78;101430.02;106966;1247;59547;-66
2023/06/07 05:40:07;;;;;;;8.20;2.70;;;;;;;18.96;46.66;101428.67;107038;1249;61892;-65
2023/06/07 05:42:38;;;;;;;11.60;2.80;;;;;;;19.10;46.36;101433.54;106785;1258;71949;-66
2023/06/07 05:45:07;;;;;;;10.90;3.00;;;;;;;19.04;46.28;101429.33;107349;1247;70801;-66
2023/06/07 05:47:35;;;;;;;8.30;3.00;;;;;;;19.22;45.79;101424.77;107477;1248;63894;-67
2023/06/07 05:50:04;;;;;;;9.40;2.90;;;;;;;19.30;45.03;101425.77;106991;1247;61406;-65
2023/06/07 05:52:32;;;;;;;5.40;2.40;;;;;;;19.21;44.13;101426.30;106793;1248;59024;-65
2023/06/07 05:55:00;;;;;;;11.70;2.40;;;;;;;19.26;43.91;101423.29;106925;1248;71809;-66
2023/06/07 05:57:30;;;;;;;6.70;2.40;;;;;;;19.29;43.78;101421.61;106975;1248;62156;-68
2023/06/07 05:59:57;;;;;;;6.80;2.70;;;;;;;19.36;43.66;101419.14;106873;1248;59951;-64
2023/06/07 06:02:26;;;;;;;7.20;2.90;;;;;;;19.53;43.68;101418.23;106880;1247;63880;-64
2023/06/07 06:04:55;;;;;;;6.60;2.50;;;;;;;19.73;43.76;101419.52;106836;1248;57873;-65
2023/06/07 06:07:23;;;;;;;8.40;3.00;;;;;;;19.85;43.85;101415.38;107921;1236;60202;-65
2023/06/07 06:09:51;;;;;;;7.00;3.70;;;;;;;19.92;44.16;101411.98;107809;1238;72653;-65
2023/06/07 06:12:19;;;;;;;7.40;3.20;;;;;;;19.95;44.12;101411.14;107818;1235;72192;-65
2023/06/07 06:14:46;;;;;;;6.20;2.50;;;;;;;20.12;43.32;101411.95;107527;1242;70368;-65
2023/06/07 06:17:14;;;;;;;6.80;2.40;;;;;;;19.92;43.33;101409.31;107584;1248;63224;-66
2023/06/07 06:19:42;;;;;;;7.50;2.70;;;;;;;19.94;43.10;101410.60;107668;1238;61504;-64
2023/06/07 06:22:09;;;;;;;7.50;2.90;;;;;;;20.06;42.93;101412.29;107695;1245;59605;-65
2023/06/07 06:24:37;;;;;;;8.90;2.80;;;;;;;20.04;42.73;101411.50;107424;1241;62772;-65
2023/06/07 06:27:06;;;;;;;5.60;2.50;;;;;;;20.20;42.33;101414.56;107615;1238;61151;-66
2023/06/07 06:29:33;;;;;;;11.40;2.70;;;;;;;20.22;42.28;101410.86;107564;1247;60661;-67
2023/06/07 06:32:01;;;;;;;5.80;2.50;;;;;;;20.22;42.52;101415.47;107545;1239;63877;-65
2023/06/07 06:34:29;;;;;;;5.20;2.80;;;;;;;20.40;42.47;101415.02;107532;1239;62032;-66
2023/06/07 06:36:57;;;;;;;9.90;2.90;;;;;;;20.80;43.33;101418.55;107905;1238;57550;-67
2023/06/07 06:39:25;;;;;;;8.40;2.90;;;;;;;21.00;43.39;101417.84;107835;1238;63074;-65
2023/06/07 06:41:53;;;;;;;8.00;3.10;;;;;;;21.03;42.80;101421.19;107799;1238;61963;-66
2023/06/07 06:44:29;;;;;;;9.80;2.90;;;;;;;21.14;42.40;101424.74;107827;1248;60813;-66
2023/06/07 06:46:57;;;;;;;7.10;2.90;;;;;;;21.09;41.47;101424.03;107835;1241;73281;-66
2023/06/07 06:49:24;;;;;;;8.90;2.80;;;;;;;21.11;40.86;101425.54;107794;1245;60610;-68
2023/06/07 06:51:52;;;;;;;4.90;2.10;;;;;;;21.05;40.48;101423.98;107929;1248;59484;-65
2023/06/07 06:54:21;;;;;;;6.90;3.00;;;;;;;20.68;40.55;101417.85;107848;1235;73639;-66
2023/06/07 06:56:48;;;;;;;7.20;3.00;;;;;;;20.79;40.73;101419.02;107798;1239;62509;-68
2023/06/07 06:59:16;;;;;;;6.60;3.00;;;;;;;21.09;40.24;101420.27;107905;1238;59386;-66
2023/06/07 07:01:48;;;;;;;8.50;2.70;;;;;;;21.35;39.80;101421.73;107841;1244;63860;-67
2023/06/07 07:04:17;;;;;;;8.50;2.60;;;;;;;21.54;39.24;101423.60;107791;1238;57462;-69
2023/06/07 07:06:45;;;;;;;6.30;2.60;;;;;;;21.38;39.01;101424.31;107612;1242;58976;-67
2023/06/07 07:09:13;;;;;;;3.60;2.40;;;;;;;21.25;39.51;101420.70;107942;1238;73377;-67
2023/06/07 07:11:40;;;;;;;7.00;2.40;;;;;;;21.21;39.62;101422.70;107872;1249;62346;-67
2023/06/07 07:14:08;;;;;;;5.80;2.50;;;;;;;21.40;39.41;101420.52;107866;1248;59348;-65
2023/06/07 07:16:36;;;;;;;7.40;2.80;;;;;;;21.43;39.11;101423.00;107925;1238;64169;-67
2023/06/07 07:19:06;;;;;;;3.70;2.20;;;;;;;21.42;39.28;101422.46;107877;1239;57362;-68
2023/06/07 07:21:34;;;;;;;6.90;2.80;;;;;;;21.75;38.84;101426.11;110030;1237;60143;-67
2023/06/07 07:24:01;;;;;;;14.10;3.10;;;;;;;21.76;38.99;101424.61;110301;1238;73622;-67
2023/06/07 07:26:29;;;;;;;5.10;2.60;;;;;;;21.53;39.00;101422.80;110200;1238;62107;-68
2023/06/07 07:28:57;;;;;;;5.80;2.50;;;;;;;21.68;38.93;101424.89;110023;1241;70398;-68
2023/06/07 07:31:24;;;;;;;5.00;2.50;;;;;;;21.77;39.09;101426.46;110167;1237;63975;-69
2023/06/07 07:33:52;;;;;;;8.20;3.20;;;;;;;21.88;39.22;101426.88;110298;1238;57138;-67
2023/06/07 07:36:21;;;;;;;6.00;2.60;;;;;;;21.84;39.27;101427.13;110287;1237;61865;-69
2023/06/07 07:38:48;;;;;;;5.60;2.20;;;;;;;22.03;38.62;101429.30;110298;1237;72615;-67
2023/06/07 07:41:16;;;;;;;10.30;2.80;;;;;;;21.64;38.82;101429.49;110330;1236;61785;-68
2023/06/07 07:43:43;;;;;;;7.30;3.00;;;;;;;21.81;38.85;101429.35;110216;1238;69521;-68
2023/06/07 07:46:13;;;;;;;17.90;3.10;;;;;;;22.27;38.27;101433.05;110120;1239;73643;-67
2023/06/07 07:48:40;;;;;;;5.40;2.40;;;;;;;22.37;37.63;101436.31;110218;1238;60841;-67
2023/06/07 07:51:09;;;;;;;5.90;2.50;;;;;;;22.41;37.21;101430.62;110258;1238;62229;-67
2023/06/07 07:53:37;;;;;;;7.30;2.80;;;;;;;22.56;36.90;101432.81;110294;1235;70846;-69
2023/06/07 07:56:04;;;;;;;4.00;2.30;;;;;;;22.76;36.61;101434.33;110289;1235;72394;-67
2023/06/07 07:58:32;;;;;;;6.90;2.70;;;;;;;22.92;35.53;101432.19;110234;1236;71863;-67
2023/06/07 08:00:59;;;;;;;6.00;2.60;;;;;;;22.90;35.61;101433.05;110193;1238;63593;-67
2023/06/07 08:03:27;;;;;;;12.90;3.50;;;;;;;22.67;36.26;101432.60;110173;1238;60310;-69
2023/06/07 08:05:54;;;;;;;13.00;3.10;;;;;;;23.16;35.94;101433.77;110205;1235;57138;-67
2023/06/07 08:08:23;;;;;;;10.50;3.20;;;;;;;23.16;35.43;101432.06;110292;1236;62145;-68
2023/06/07 08:10:50;;;;;;;9.50;2.80;;;;;;;22.91;35.37;101437.38;110198;1237;71886;-67
2023/06/07 08:13:18;;;;;;;6.10;2.80;;;;;;;22.62;35.55;101437.81;110179;1236;60059;-67
2023/06/07 08:15:47;;;;;;;14.00;3.00;;;;;;;22.81;35.36;101439.54;110183;1238;63440;-71
2023/06/07 08:18:17;;;;;;;8.60;2.70;;;;;;;22.47;35.99;101438.29;110013;1239;57196;-67
2023/06/07 08:20:44;;;;;;;7.40;3.00;;;;;;;22.35;36.58;101443.68;110068;1238;57190;-67
2023/06/07 08:23:12;;;;;;;5.70;2.60;;;;;;;22.73;35.99;101446.85;110091;1238;72285;-68
2023/06/07 08:25:39;;;;;;;5.70;3.00;;;;;;;22.74;36.10;101439.50;110233;1238;61254;-68
2023/06/07 08:28:08;;;;;;;5.40;2.70;;;;;;;23.03;35.97;101439.43;110257;1237;68549;-67
2023/06/07 08:30:36;;;;;;;6.70;2.80;;;;;;;22.69;36.23;101443.94;110256;1236;63005;-67
2023/06/07 08:33:03;;;;;;;9.50;3.30;;;;;;;22.92;35.88;101442.84;110228;1238;61207;-69
2023/06/07 08:35:31;;;;;;;5.40;2.80;;;;;;;23.07;36.03;101441.05;110357;1235;57639;-69
2023/06/07 08:38:00;;;;;;;8.20;2.60;;;;;;;23.30;35.07;101442.36;110344;1235;63811;-69
2023/06/07 08:40:31;;;;;;;4.60;2.50;;;;;;;23.60;34.49;101446.70;110261;1236;63405;-69
2023/06/07 08:42:59;;;;;;;9.20;2.50;;;;;;;23.48;34.42;101449.49;110126;1237;68429;-72
2023/06/07 08:45:27;;;;;;;19.50;3.80;;;;;;;23.55;34.62;101446.96;110160;1238;64234;-67
2023/06/07 08:47:58;;;;;;;6.20;2.70;;;;;;;23.05;34.66;101445.90;110177;1239;61195;-69
2023/06/07 08:50:27;;;;;;;8.00;3.20;;;;;;;22.84;35.03;101444.19;110064;1238;61550;-67
2023/06/07 08:52:55;;;;;;;9.30;3.10;;;;;;;23.02;35.18;101438.42;110215;1236;62790;-67
2023/06/07 08:55:24;;;;;;;8.80;2.70;;;;;;;23.35;34.58;101437.20;110025;1235;72080;-69
2023/06/07 08:57:52;;;;;;;7.00;2.80;;;;;;;23.67;34.27;101439.98;110165;1236;60514;-69
2023/06/07 09:00:24;;;;;;;6.90;2.40;;;;;;;23.48;33.91;101439.91;110168;1238;73822;-69
2023/06/07 09:02:55;;;;;;;7.80;2.90;;;;;;;23.85;33.77;101444.71;110099;1236;57762;-68
2023/06/07 09:05:23;;;;;;;7.30;2.80;;;;;;;23.83;33.92;101441.33;109769;1236;60327;-68
2023/06/07 09:07:52;;;;;;;5.90;2.40;;;;;;;24.09;33.54;101431.38;109987;1237;62468;-68
2023/06/07 09:10:20;;;;;;;8.00;3.10;;;;;;;24.47;33.39;101432.13;109791;1238;60728;-69
2023/06/07 09:12:48;;;;;;;6.10;2.30;;;;;;;24.41;33.13;101430.67;110008;1235;70501;-69
2023/06/07 09:15:19;;;;;;;8.50;2.50;;;;;;;24.21;33.23;101432.89;109855;1239;73570;-68
2023/06/07 09:17:56;;;;;;;9.60;2.60;;;;;;;24.51;33.10;101432.92;109747;1241;61593;-69
2023/06/07 09:20:30;;;;;;;5.60;2.30;;;;;;;24.60;32.79;101427.54;110072;1237;61112;-68
2023/06/07 09:23:09;;;;;;;14.30;3.10;;;;;;;24.89;31.93;101425.47;109899;1237;73292;-70
2023/06/07 09:25:39;;;;;;;5.20;2.40;;;;;;;24.91;31.91;101421.64;109979;1235;61208;-69
2023/06/07 09:28:14;;;;;;;6.70;2.40;;;;;;;25.44;31.98;101419.63;110083;1236;68815;-68
2023/06/07 09:30:52;;;;;;;10.20;2.40;;;;;;;25.12;31.35;101418.18;110179;1237;62844;-69
2023/06/07 09:33:36;;;;;;;7.20;2.60;;;;;;;25.00;30.71;101417.84;110090;1239;57136;-69
2023/06/07 09:36:15;;;;;;;11.60;2.80;;;;;;;24.56;31.46;101417.35;110222;1235;57200;-69
2023/06/07 09:38:42;;;;;;;8.00;2.70;;;;;;;24.45;31.58;101416.60;110219;1235;62461;-69
2023/06/07 09:41:10;;;;;;;6.90;2.50;;;;;;;24.46;31.58;101401.13;110251;1235;71838;-69
2023/06/07 09:43:50;;;;;;;6.50;2.70;;;;;;;24.86;31.86;101407.15;110231;1236;60472;-69
2023/06/07 09:46:21;;;;;;;8.90;2.90;;;;;;;24.98;31.23;101407.73;110070;1241;73776;-69
2023/06/07 09:48:54;;;;;;;5.10;2.30;;;;;;;25.45;31.03;101408.61;109960;1236;57504;-70
2023/06/07 09:51:24;;;;;;;4.70;2.40;;;;;;;25.67;30.24;101415.73;110179;1238;57716;-69
2023/06/07 09:54:00;;;;;;;13.90;2.30;;;;;;;25.76;29.63;101414.63;110022;1238;73868;-69
2023/06/07 09:56:28;;;;;;;7.60;2.70;;;;;;;25.63;29.46;101416.71;110028;1236;72585;-69
2023/06/07 09:59:10;;;;;;;6.30;2.50;;;;;;;25.49;29.76;101417.16;110071;1235;59754;-69
2023/06/07 10:01:42;;;;;;;5.70;2.40;;;;;;;25.52;29.56;101409.46;110148;1237;65512;-67
2023/06/07 10:04:14;;;;;;;6.70;2.50;;;;;;;25.67;29.24;101413.66;109792;1238;57221;-69
2023/06/07 10:06:44;;;;;;;7.70;2.40;;;;;;;25.45;29.89;101420.34;109944;1236;60531;-68
2023/06/07 10:09:15;;;;;;;6.10;2.30;;;;;;;25.58;29.80;101408.32;109873;1241;63467;-69
2023/06/07 10:11:46;;;;;;;9.60;3.00;;;;;;;26.08;29.71;101403.34;109959;1237;60924;-69
2023/06/07 10:14:18;;;;;;;8.10;2.50;;;;;;;26.32;29.26;101405.91;110218;1235;59936;-68
2023/06/07 10:16:57;;;;;;;4.20;2.30;;;;;;;25.27;30.26;101405.93;110149;1235;63266;-69
2023/06/07 10:19:45;;;;;;;4.70;2.10;;;;;;;25.87;29.70;101395.30;109950;1238;61349;-68
2023/06/07 10:22:16;;;;;;;7.50;2.20;;;;;;;26.07;29.75;101389.40;110007;1238;60791;-69
2023/06/07 10:25:07;;;;;;;16.40;2.80;;;;;;;26.09;29.11;101385.96;109997;1237;62593;-68
2023/06/07 10:27:42;;;;;;;6.00;2.40;;;;;;;25.78;29.10;101387.95;110101;1237;62195;-68
2023/06/07 10:30:14;;;;;;;7.10;2.20;;;;;;;26.75;27.84;101393.75;110139;1237;59880;-69
2023/06/07 10:32:44;;;;;;;15.30;2.90;;;;;;;27.39;26.90;101385.42;110239;1235;73736;-68
2023/06/07 10:35:11;;;;;;;8.80;2.30;;;;;;;26.69;27.98;101396.08;110040;1240;57731;-69
2023/06/07 10:37:44;;;;;;;4.70;1.90;;;;;;;27.06;27.37;101396.63;110175;1236;61226;-69
2023/06/07 10:40:14;;;;;;;8.90;2.50;;;;;;;26.41;28.19;101392.28;109963;1237;74385;-71
2023/06/07 10:42:46;;;;;;;8.00;2.40;;;;;;;26.43;28.12;101385.77;110102;1237;61384;-67
2023/06/07 10:45:18;;;;;;;7.80;2.40;;;;;;;26.80;27.89;101377.38;110099;1239;59306;-68
2023/06/07 10:47:47;;;;;;;10.90;2.90;;;;;;;27.19;27.98;101376.52;110196;1237;64276;-69
2023/06/07 10:50:27;;;;;;;7.30;2.70;;;;;;;27.21;27.36;101381.20;110193;1238;57647;-69
2023/06/07 10:52:56;;;;;;;4.40;2.10;;;;;;;27.43;26.91;101378.50;110210;1237;57416;-67
2023/06/07 10:55:26;;;;;;;4.50;2.30;;;;;;;27.83;26.47;101370.63;110169;1236;63209;-68
2023/06/07 10:57:54;;;;;;;10.60;2.90;;;;;;;27.61;26.54;101361.23;110060;1239;72044;-72
2023/06/07 11:00:30;;;;;;;5.20;2.40;;;;;;;27.25;27.13;101372.42;110149;1235;62062;-67
2023/06/07 11:03:21;;;;;;;6.60;2.20;;;;;;;26.84;27.17;101371.44;110238;1238;62818;-70
2023/06/07 11:05:58;;;;;;;7.60;2.60;;;;;;;26.82;27.40;101367.30;110156;1238;57608;-67
2023/06/07 11:08:31;;;;;;;6.40;2.30;;;;;;;26.80;27.40;101361.34;110080;1238;60315;-68
2023/06/07 11:11:01;;;;;;;5.70;2.40;;;;;;;27.18;27.28;101351.54;110119;1238;63516;-68
2023/06/07 11:13:43;;;;;;;7.50;3.00;;;;;;;27.28;27.35;101349.04;110241;1238;61634;-68
2023/06/07 11:16:28;;;;;;;10.40;2.20;;;;;;;27.41;27.39;101351.15;110209;1237;61213;-67
2023/06/07 11:19:13;;;;;;;4.60;2.40;;;;;;;28.44;26.46;101351.52;110143;1236;73260;-68
2023/06/07 11:21:55;;;;;;;6.20;2.50;;;;;;;28.20;26.26;101350.55;109870;1239;57238;-67
2023/06/07 11:24:23;;;;;;;4.10;2.10;;;;;;;28.30;26.20;101339.98;109898;1237;57143;-68
2023/06/07 11:26:51;;;;;;;7.10;2.30;;;;;;;28.75;25.87;101335.98;109946;1239;63658;-67
2023/06/07 11:29:20;;;;;;;6.10;2.30;;;;;;;28.65;25.96;101334.48;110037;1237;71423;-68
2023/06/07 11:32:10;;;;;;;9.20;2.50;;;;;;;27.53;26.77;101328.24;110032;1238;60397;-68
2023/06/07 11:34:38;;;;;;;4.60;2.20;;;;;;;27.57;27.12;101331.62;110094;1239;64222;-68